Detall de PIREP

Printer-friendly versionPDF version

[2012/10/04 07:21:00]
Flight IATA:CT2111
Pilot Number:041
Company ICAO:CAT
Aircraft Type:BE58/A
PAX:2
Departing Airport: LEST
Destination Airport: LEVC
Alternate Airport:LEAL
Online: VATSIM
Route:FORNO A33 ZMR A33 DISKO A33 INDEG A33 MAGIN A33 HORTA A33 CJN A33 PRADO A33 CENTA


Flight Level:F140
No Slew and time accel
No pause
Crash detect
Detect pilot in Cockpit between each 30 and 45 minutes
07:21 Zero fuel Weight: 4592 Lbs, Fuel Weight: 850 Lbs
07:21 VATSIM:LEST 040700Z 14003KT 080V170 9999 VCFG SCT007 10/10 Q1019 TEMPO 1500 BCFG
07:21 VATSIM:LEVC 040700Z VRB01KT CAVOK 17/15 Q1017 NOSIG
07:21 VOICE CATALONIAN
07:26 Parking Brakes off
07:31 Take-off
07:31 Take off Weight: 5438 Lbs
07:31 Wind: 139º @ 003 Knots Heading: 164º
07:31 POS N42º 53´ 52´´ W008º 24´ 56´´
07:31 Gear Up: 109 Knots
07:31 Flaps:1 at 109 Knots
07:31 Flaps:0 at 125 Knots
07:43 TOC
07:43 Fuel Weight: 797 Lb
07:46 Wind:208º@002 Knots Heading: 122º Ground Speed: 209 Knots Altitude 14163 ft
08:01 Wind:212º@002 Knots Heading: 124º Ground Speed: 210 Knots Altitude 14163 ft
08:16 Wind:057º@001 Knots Heading: 124º Ground Speed: 210 Knots Altitude 14186 ft
08:31 Wind:000º@000 Knots Heading: 115º Ground Speed: 210 Knots Altitude 14196 ft
08:46 Wind:000º@000 Knots Heading: 116º Ground Speed: 210 Knots Altitude 14192 ft
09:01 Wind:000º@000 Knots Heading: 117º Ground Speed: 210 Knots Altitude 14196 ft
09:08 TOD
09:08 Fuel Weight: 470 Lb
09:16 Wind:000º@000 Knots Heading: 119º Ground Speed: 198 Knots Altitude 8133 ft
09:30 Flaps:1 at 130 Knots
09:30 Gear Down: 127 Knots
09:31 Wind:000º@000 Knots Heading: 105º Ground Speed: 101 Knots Altitude 4498 ft
09:33 Flaps:2 at 101 Knots
09:39 TouchDown:Rate -191 ft/min Speed: 81 Knots
09:39 Flaps:0 at 72 Knots
09:39 VATSIM:LEVC 040930Z 00000KT CAVOK 23/15 Q1018 NOSIG
09:39 Land
09:39 Wind:000º@000 Knots
09:39 Heading: 114º
09:39 Flight Duration: 02:08
09:39 Landing Weight: 4985 Lbs
09:39 POS N39º 29´ 39´´ W000º 29´ 41´´
09:41 Parking brakes on
09:41 Block to Block Duration: 02:15
09:41 Final Fuel: 392 Lbls
09:41 Spent Fuel: 458 Lbls
09:41 Flight Length: 414 NM
09:41 TOD Land Length: 85 NM

Exportar CSV

Powered by Drupal - Modified by Danger4k